sensor_id;sensor_type;location;lat;lon;timestamp;P1;durP1;ratioP1;P2;durP2;ratioP2
11481;SDS011;5797;51.662;6.748;2022-09-21T00:01:07;3.80;;;3.20;;
11481;SDS011;5797;51.662;6.748;2022-09-21T00:03:37;5.60;;;3.17;;
11481;SDS011;5797;51.662;6.748;2022-09-21T00:06:07;3.90;;;2.67;;
11481;SDS011;5797;51.662;6.748;2022-09-21T00:08:37;4.20;;;2.77;;
11481;SDS011;5797;51.662;6.748;2022-09-21T00:11:05;6.57;;;2.37;;
11481;SDS011;5797;51.662;6.748;2022-09-21T00:13:34;2.90;;;2.60;;
11481;SDS011;5797;51.662;6.748;2022-09-21T00:16:03;4.10;;;2.70;;
11481;SDS011;5797;51.662;6.748;2022-09-21T00:18:32;4.10;;;2.47;;
11481;SDS011;5797;51.662;6.748;2022-09-21T00:21:00;2.57;;;2.37;;
11481;SDS011;5797;51.662;6.748;2022-09-21T00:23:30;3.97;;;2.90;;
11481;SDS011;5797;51.662;6.748;2022-09-21T00:26:05;5.17;;;3.00;;
11481;SDS011;5797;51.662;6.748;2022-09-21T00:28:33;5.33;;;2.90;;
11481;SDS011;5797;51.662;6.748;2022-09-21T00:31:01;6.53;;;2.87;;
11481;SDS011;5797;51.662;6.748;2022-09-21T00:33:30;3.00;;;2.67;;
11481;SDS011;5797;51.662;6.748;2022-09-21T00:36:00;3.83;;;3.07;;
11481;SDS011;5797;51.662;6.748;2022-09-21T00:38:31;4.10;;;2.73;;
11481;SDS011;5797;51.662;6.748;2022-09-21T00:40:59;3.53;;;2.73;;
11481;SDS011;5797;51.662;6.748;2022-09-21T00:43:27;3.93;;;2.80;;
11481;SDS011;5797;51.662;6.748;2022-09-21T00:45:56;4.73;;;2.87;;
11481;SDS011;5797;51.662;6.748;2022-09-21T00:48:27;2.93;;;2.63;;
11481;SDS011;5797;51.662;6.748;2022-09-21T00:51:00;3.30;;;2.57;;
11481;SDS011;5797;51.662;6.748;2022-09-21T00:53:40;4.60;;;2.67;;
11481;SDS011;5797;51.662;6.748;2022-09-21T00:56:08;4.57;;;3.03;;
11481;SDS011;5797;51.662;6.748;2022-09-21T00:58:37;4.57;;;3.07;;
11481;SDS011;5797;51.662;6.748;2022-09-21T01:01:07;6.43;;;2.87;;
11481;SDS011;5797;51.662;6.748;2022-09-21T01:03:36;5.67;;;2.90;;
11481;SDS011;5797;51.662;6.748;2022-09-21T01:06:05;5.67;;;2.90;;
11481;SDS011;5797;51.662;6.748;2022-09-21T01:08:33;2.87;;;2.33;;
11481;SDS011;5797;51.662;6.748;2022-09-21T01:11:12;3.93;;;2.90;;
11481;SDS011;5797;51.662;6.748;2022-09-21T01:13:50;4.07;;;2.60;;
11481;SDS011;5797;51.662;6.748;2022-09-21T01:16:32;3.67;;;2.67;;
11481;SDS011;5797;51.662;6.748;2022-09-21T01:19:06;4.90;;;2.50;;
11481;SDS011;5797;51.662;6.748;2022-09-21T01:21:43;3.20;;;2.47;;
11481;SDS011;5797;51.662;6.748;2022-09-21T01:24:21;3.37;;;2.30;;
11481;SDS011;5797;51.662;6.748;2022-09-21T01:30:10;2.30;;;2.10;;
11481;SDS011;5797;51.662;6.748;2022-09-21T01:32:40;4.53;;;2.37;;
11481;SDS011;5797;51.662;6.748;2022-09-21T01:35:10;3.57;;;2.47;;
11481;SDS011;5797;51.662;6.748;2022-09-21T01:37:41;3.60;;;2.40;;
11481;SDS011;5797;51.662;6.748;2022-09-21T01:40:12;3.50;;;2.23;;
11481;SDS011;5797;51.662;6.748;2022-09-21T01:42:43;6.90;;;2.23;;
11481;SDS011;5797;51.662;6.748;2022-09-21T01:45:13;4.23;;;2.53;;
11481;SDS011;5797;51.662;6.748;2022-09-21T01:47:42;3.20;;;2.00;;
11481;SDS011;5797;51.662;6.748;2022-09-21T01:50:21;4.00;;;2.37;;
11481;SDS011;5797;51.662;6.748;2022-09-21T01:52:51;2.53;;;2.10;;
11481;SDS011;5797;51.662;6.748;2022-09-21T01:55:22;5.77;;;2.60;;
11481;SDS011;5797;51.662;6.748;2022-09-21T01:57:55;3.90;;;2.47;;
11481;SDS011;5797;51.662;6.748;2022-09-21T02:00:27;2.70;;;2.47;;
11481;SDS011;5797;51.662;6.748;2022-09-21T02:02:56;5.20;;;2.80;;
11481;SDS011;5797;51.662;6.748;2022-09-21T02:05:27;2.80;;;2.50;;
11481;SDS011;5797;51.662;6.748;2022-09-21T02:07:56;3.87;;;2.70;;
11481;SDS011;5797;51.662;6.748;2022-09-21T02:10:25;3.13;;;2.50;;
11481;SDS011;5797;51.662;6.748;2022-09-21T02:12:57;3.43;;;2.67;;
11481;SDS011;5797;51.662;6.748;2022-09-21T02:15:30;7.10;;;2.53;;
11481;SDS011;5797;51.662;6.748;2022-09-21T02:18:03;2.93;;;2.40;;
11481;SDS011;5797;51.662;6.748;2022-09-21T02:20:35;3.40;;;2.70;;
11481;SDS011;5797;51.662;6.748;2022-09-21T02:23:07;3.63;;;2.67;;
11481;SDS011;5797;51.662;6.748;2022-09-21T02:25:40;3.30;;;2.63;;
11481;SDS011;5797;51.662;6.748;2022-09-21T02:28:15;2.47;;;2.27;;
11481;SDS011;5797;51.662;6.748;2022-09-21T02:30:52;3.53;;;2.43;;
11481;SDS011;5797;51.662;6.748;2022-09-21T02:33:27;5.57;;;2.40;;
11481;SDS011;5797;51.662;6.748;2022-09-21T02:35:58;3.80;;;2.50;;
11481;SDS011;5797;51.662;6.748;2022-09-21T02:38:33;3.33;;;2.40;;
11481;SDS011;5797;51.662;6.748;2022-09-21T02:41:04;3.17;;;2.20;;
11481;SDS011;5797;51.662;6.748;2022-09-21T02:43:35;2.77;;;2.47;;
11481;SDS011;5797;51.662;6.748;2022-09-21T02:46:08;6.13;;;2.60;;
11481;SDS011;5797;51.662;6.748;2022-09-21T02:48:42;2.47;;;2.10;;
11481;SDS011;5797;51.662;6.748;2022-09-21T02:51:13;2.43;;;2.13;;
11481;SDS011;5797;51.662;6.748;2022-09-21T02:53:43;2.00;;;1.80;;
11481;SDS011;5797;51.662;6.748;2022-09-21T02:56:13;3.20;;;2.00;;
11481;SDS011;5797;51.662;6.748;2022-09-21T02:58:42;4.80;;;2.10;;
11481;SDS011;5797;51.662;6.748;2022-09-21T03:01:14;2.00;;;1.80;;
11481;SDS011;5797;51.662;6.748;2022-09-21T03:03:42;3.07;;;2.03;;
11481;SDS011;5797;51.662;6.748;2022-09-21T03:06:10;2.33;;;2.00;;
11481;SDS011;5797;51.662;6.748;2022-09-21T03:08:38;2.57;;;2.20;;
11481;SDS011;5797;51.662;6.748;2022-09-21T03:11:07;3.97;;;2.27;;
11481;SDS011;5797;51.662;6.748;2022-09-21T03:13:36;3.83;;;2.07;;
11481;SDS011;5797;51.662;6.748;2022-09-21T03:16:04;5.13;;;2.47;;
11481;SDS011;5797;51.662;6.748;2022-09-21T03:18:34;1.87;;;1.40;;
11481;SDS011;5797;51.662;6.748;2022-09-21T03:21:02;2.80;;;2.10;;
11481;SDS011;5797;51.662;6.748;2022-09-21T03:23:30;2.97;;;1.90;;
11481;SDS011;5797;51.662;6.748;2022-09-21T03:25:58;3.80;;;1.83;;
11481;SDS011;5797;51.662;6.748;2022-09-21T03:28:26;2.33;;;2.10;;
11481;SDS011;5797;51.662;6.748;2022-09-21T03:30:53;2.10;;;1.90;;
11481;SDS011;5797;51.662;6.748;2022-09-21T03:33:22;3.90;;;2.43;;
11481;SDS011;5797;51.662;6.748;2022-09-21T03:35:52;3.03;;;1.83;;
11481;SDS011;5797;51.662;6.748;2022-09-21T03:38:19;6.63;;;2.40;;
11481;SDS011;5797;51.662;6.748;2022-09-21T03:40:48;3.23;;;2.00;;
11481;SDS011;5797;51.662;6.748;2022-09-21T03:43:16;4.00;;;1.83;;
11481;SDS011;5797;51.662;6.748;2022-09-21T03:45:44;7.10;;;2.33;;
11481;SDS011;5797;51.662;6.748;2022-09-21T03:48:14;2.10;;;1.80;;
11481;SDS011;5797;51.662;6.748;2022-09-21T03:50:42;4.13;;;1.97;;
11481;SDS011;5797;51.662;6.748;2022-09-21T03:53:11;2.57;;;2.20;;
11481;SDS011;5797;51.662;6.748;2022-09-21T03:55:39;5.50;;;2.40;;
11481;SDS011;5797;51.662;6.748;2022-09-21T03:58:07;4.10;;;1.97;;
11481;SDS011;5797;51.662;6.748;2022-09-21T04:00:35;2.30;;;1.90;;
11481;SDS011;5797;51.662;6.748;2022-09-21T04:03:03;2.43;;;1.90;;
11481;SDS011;5797;51.662;6.748;2022-09-21T04:05:31;2.90;;;2.07;;
11481;SDS011;5797;51.662;6.748;2022-09-21T04:07:59;2.50;;;2.10;;
11481;SDS011;5797;51.662;6.748;2022-09-21T04:10:28;2.30;;;2.10;;
11481;SDS011;5797;51.662;6.748;2022-09-21T04:12:59;2.63;;;2.23;;
11481;SDS011;5797;51.662;6.748;2022-09-21T04:15:28;2.53;;;2.13;;
11481;SDS011;5797;51.662;6.748;2022-09-21T04:17:57;2.40;;;1.90;;
11481;SDS011;5797;51.662;6.748;2022-09-21T04:20:24;3.87;;;2.30;;
11481;SDS011;5797;51.662;6.748;2022-09-21T04:22:52;4.00;;;2.30;;
11481;SDS011;5797;51.662;6.748;2022-09-21T04:25:20;4.53;;;2.37;;
11481;SDS011;5797;51.662;6.748;2022-09-21T04:27:49;4.30;;;2.60;;
11481;SDS011;5797;51.662;6.748;2022-09-21T04:30:17;4.00;;;2.70;;
11481;SDS011;5797;51.662;6.748;2022-09-21T04:32:45;5.03;;;2.73;;
11481;SDS011;5797;51.662;6.748;2022-09-21T04:35:13;4.90;;;3.20;;
11481;SDS011;5797;51.662;6.748;2022-09-21T04:37:41;4.03;;;2.67;;
11481;SDS011;5797;51.662;6.748;2022-09-21T04:40:09;9.77;;;5.77;;
11481;SDS011;5797;51.662;6.748;2022-09-21T04:42:37;13.50;;;8.90;;
11481;SDS011;5797;51.662;6.748;2022-09-21T04:45:07;14.23;;;10.80;;
11481;SDS011;5797;51.662;6.748;2022-09-21T04:47:35;14.30;;;11.87;;
11481;SDS011;5797;51.662;6.748;2022-09-21T04:50:03;13.63;;;9.80;;
11481;SDS011;5797;51.662;6.748;2022-09-21T04:52:32;15.53;;;6.97;;
11481;SDS011;5797;51.662;6.748;2022-09-21T04:55:00;9.13;;;7.43;;
11481;SDS011;5797;51.662;6.748;2022-09-21T04:57:28;9.77;;;4.37;;
11481;SDS011;5797;51.662;6.748;2022-09-21T04:59:56;2.93;;;2.73;;
11481;SDS011;5797;51.662;6.748;2022-09-21T05:02:25;3.67;;;3.17;;
11481;SDS011;5797;51.662;6.748;2022-09-21T05:04:53;5.47;;;2.73;;
11481;SDS011;5797;51.662;6.748;2022-09-21T05:07:20;3.63;;;3.07;;
11481;SDS011;5797;51.662;6.748;2022-09-21T05:09:48;5.27;;;2.93;;
11481;SDS011;5797;51.662;6.748;2022-09-21T05:12:30;7.57;;;3.23;;
11481;SDS011;5797;51.662;6.748;2022-09-21T05:14:59;6.77;;;3.03;;
11481;SDS011;5797;51.662;6.748;2022-09-21T05:17:28;3.90;;;2.77;;
11481;SDS011;5797;51.662;6.748;2022-09-21T05:19:56;7.47;;;2.60;;
11481;SDS011;5797;51.662;6.748;2022-09-21T05:22:26;3.40;;;2.43;;
11481;SDS011;5797;51.662;6.748;2022-09-21T05:24:54;3.83;;;2.57;;
11481;SDS011;5797;51.662;6.748;2022-09-21T05:27:22;3.37;;;2.50;;
11481;SDS011;5797;51.662;6.748;2022-09-21T05:29:50;6.87;;;2.57;;
11481;SDS011;5797;51.662;6.748;2022-09-21T05:32:20;8.20;;;2.83;;
11481;SDS011;5797;51.662;6.748;2022-09-21T05:34:58;4.27;;;2.97;;
11481;SDS011;5797;51.662;6.748;2022-09-21T05:37:36;3.80;;;2.80;;
11481;SDS011;5797;51.662;6.748;2022-09-21T05:40:07;5.00;;;2.97;;
11481;SDS011;5797;51.662;6.748;2022-09-21T05:42:38;4.30;;;2.73;;
11481;SDS011;5797;51.662;6.748;2022-09-21T05:45:14;7.83;;;3.00;;
11481;SDS011;5797;51.662;6.748;2022-09-21T05:47:49;5.50;;;2.83;;
11481;SDS011;5797;51.662;6.748;2022-09-21T05:50:37;7.03;;;2.80;;
11481;SDS011;5797;51.662;6.748;2022-09-21T05:53:12;3.53;;;2.70;;
11481;SDS011;5797;51.662;6.748;2022-09-21T05:55:50;4.23;;;2.40;;
11481;SDS011;5797;51.662;6.748;2022-09-21T05:58:24;5.67;;;2.93;;
11481;SDS011;5797;51.662;6.748;2022-09-21T06:00:58;4.53;;;3.13;;
11481;SDS011;5797;51.662;6.748;2022-09-21T06:03:34;3.60;;;2.90;;
11481;SDS011;5797;51.662;6.748;2022-09-21T06:06:06;8.27;;;3.17;;
11481;SDS011;5797;51.662;6.748;2022-09-21T06:08:34;4.27;;;3.17;;
11481;SDS011;5797;51.662;6.748;2022-09-21T06:11:02;3.60;;;2.63;;
11481;SDS011;5797;51.662;6.748;2022-09-21T06:13:30;5.23;;;3.20;;
11481;SDS011;5797;51.662;6.748;2022-09-21T06:16:00;4.83;;;3.00;;
11481;SDS011;5797;51.662;6.748;2022-09-21T06:18:28;5.23;;;2.50;;
11481;SDS011;5797;51.662;6.748;2022-09-21T06:20:56;5.20;;;3.40;;
11481;SDS011;5797;51.662;6.748;2022-09-21T06:23:26;5.80;;;3.77;;
11481;SDS011;5797;51.662;6.748;2022-09-21T06:25:53;5.57;;;4.00;;
11481;SDS011;5797;51.662;6.748;2022-09-21T06:28:24;11.77;;;3.90;;
11481;SDS011;5797;51.662;6.748;2022-09-21T06:30:54;4.33;;;3.27;;
11481;SDS011;5797;51.662;6.748;2022-09-21T06:33:22;6.70;;;3.53;;
11481;SDS011;5797;51.662;6.748;2022-09-21T06:35:50;6.50;;;3.70;;
11481;SDS011;5797;51.662;6.748;2022-09-21T06:38:20;3.70;;;2.83;;
11481;SDS011;5797;51.662;6.748;2022-09-21T06:40:49;5.37;;;4.00;;
11481;SDS011;5797;51.662;6.748;2022-09-21T06:43:17;3.27;;;2.87;;
11481;SDS011;5797;51.662;6.748;2022-09-21T06:45:51;4.37;;;3.53;;
11481;SDS011;5797;51.662;6.748;2022-09-21T06:48:20;5.57;;;3.43;;
11481;SDS011;5797;51.662;6.748;2022-09-21T06:50:49;3.80;;;3.40;;
11481;SDS011;5797;51.662;6.748;2022-09-21T06:53:16;5.77;;;3.50;;
11481;SDS011;5797;51.662;6.748;2022-09-21T06:55:45;5.90;;;3.67;;
11481;SDS011;5797;51.662;6.748;2022-09-21T06:58:14;5.23;;;4.07;;
11481;SDS011;5797;51.662;6.748;2022-09-21T07:00:42;6.93;;;4.80;;
11481;SDS011;5797;51.662;6.748;2022-09-21T07:03:10;6.80;;;4.30;;
11481;SDS011;5797;51.662;6.748;2022-09-21T07:05:38;8.20;;;3.90;;
11481;SDS011;5797;51.662;6.748;2022-09-21T07:08:06;11.50;;;4.60;;
11481;SDS011;5797;51.662;6.748;2022-09-21T07:10:56;7.87;;;4.53;;
11481;SDS011;5797;51.662;6.748;2022-09-21T07:13:26;8.50;;;4.80;;
11481;SDS011;5797;51.662;6.748;2022-09-21T07:15:54;13.47;;;5.17;;
11481;SDS011;5797;51.662;6.748;2022-09-21T07:18:22;7.00;;;5.07;;
11481;SDS011;5797;51.662;6.748;2022-09-21T07:20:50;6.15;;;4.70;;
11481;SDS011;5797;51.662;6.748;2022-09-21T07:23:18;8.20;;;4.77;;
11481;SDS011;5797;51.662;6.748;2022-09-21T07:25:47;9.33;;;5.07;;
11481;SDS011;5797;51.662;6.748;2022-09-21T07:28:18;11.13;;;5.00;;
11481;SDS011;5797;51.662;6.748;2022-09-21T07:30:47;7.27;;;4.90;;
11481;SDS011;5797;51.662;6.748;2022-09-21T07:33:16;7.83;;;5.00;;
11481;SDS011;5797;51.662;6.748;2022-09-21T07:35:49;9.23;;;5.17;;
11481;SDS011;5797;51.662;6.748;2022-09-21T07:38:17;9.47;;;5.27;;
11481;SDS011;5797;51.662;6.748;2022-09-21T07:40:45;10.50;;;5.40;;
11481;SDS011;5797;51.662;6.748;2022-09-21T07:43:13;10.87;;;6.17;;
11481;SDS011;5797;51.662;6.748;2022-09-21T07:45:41;13.33;;;6.67;;
11481;SDS011;5797;51.662;6.748;2022-09-21T07:48:11;10.13;;;6.40;;
11481;SDS011;5797;51.662;6.748;2022-09-21T07:50:38;12.07;;;7.70;;
11481;SDS011;5797;51.662;6.748;2022-09-21T07:53:07;10.43;;;7.43;;
11481;SDS011;5797;51.662;6.748;2022-09-21T07:55:35;12.07;;;7.87;;
11481;SDS011;5797;51.662;6.748;2022-09-21T07:58:02;13.27;;;7.77;;
11481;SDS011;5797;51.662;6.748;2022-09-21T08:00:48;12.57;;;7.50;;
11481;SDS011;5797;51.662;6.748;2022-09-21T08:03:17;17.17;;;9.70;;
11481;SDS011;5797;51.662;6.748;2022-09-21T08:05:45;16.40;;;10.77;;
11481;SDS011;5797;51.662;6.748;2022-09-21T08:08:13;15.57;;;10.07;;
11481;SDS011;5797;51.662;6.748;2022-09-21T08:10:46;14.73;;;10.33;;
11481;SDS011;5797;51.662;6.748;2022-09-21T08:13:14;17.10;;;10.27;;
11481;SDS011;5797;51.662;6.748;2022-09-21T08:15:41;15.90;;;11.00;;
11481;SDS011;5797;51.662;6.748;2022-09-21T08:18:15;20.80;;;10.90;;
11481;SDS011;5797;51.662;6.748;2022-09-21T08:20:53;15.23;;;10.20;;
11481;SDS011;5797;51.662;6.748;2022-09-21T08:23:21;17.97;;;10.13;;
11481;SDS011;5797;51.662;6.748;2022-09-21T08:25:49;15.93;;;10.23;;
11481;SDS011;5797;51.662;6.748;2022-09-21T08:28:18;15.73;;;10.73;;
11481;SDS011;5797;51.662;6.748;2022-09-21T08:30:46;18.27;;;11.70;;
11481;SDS011;5797;51.662;6.748;2022-09-21T08:33:14;16.13;;;11.47;;
11481;SDS011;5797;51.662;6.748;2022-09-21T08:35:41;14.87;;;10.33;;
11481;SDS011;5797;51.662;6.748;2022-09-21T08:38:11;17.80;;;10.93;;
11481;SDS011;5797;51.662;6.748;2022-09-21T08:40:39;14.60;;;10.93;;
11481;SDS011;5797;51.662;6.748;2022-09-21T08:43:07;16.87;;;11.07;;
11481;SDS011;5797;51.662;6.748;2022-09-21T08:45:38;14.33;;;8.33;;
11481;SDS011;5797;51.662;6.748;2022-09-21T08:48:09;15.03;;;9.57;;
11481;SDS011;5797;51.662;6.748;2022-09-21T08:50:40;16.20;;;8.77;;
11481;SDS011;5797;51.662;6.748;2022-09-21T08:53:13;18.53;;;10.67;;
11481;SDS011;5797;51.662;6.748;2022-09-21T08:55:44;13.67;;;10.20;;
11481;SDS011;5797;51.662;6.748;2022-09-21T08:58:15;12.87;;;8.47;;
11481;SDS011;5797;51.662;6.748;2022-09-21T09:00:49;12.80;;;7.50;;
11481;SDS011;5797;51.662;6.748;2022-09-21T09:03:41;15.00;;;7.40;;
11481;SDS011;5797;51.662;6.748;2022-09-21T09:06:22;15.27;;;7.90;;
11481;SDS011;5797;51.662;6.748;2022-09-21T09:09:04;10.30;;;6.90;;
11481;SDS011;5797;51.662;6.748;2022-09-21T09:11:45;13.53;;;6.47;;
11481;SDS011;5797;51.662;6.748;2022-09-21T09:14:35;9.13;;;5.70;;
11481;SDS011;5797;51.662;6.748;2022-09-21T09:17:35;9.43;;;4.53;;
11481;SDS011;5797;51.662;6.748;2022-09-21T09:20:10;8.60;;;5.67;;
11481;SDS011;5797;51.662;6.748;2022-09-21T09:22:42;8.93;;;6.03;;
11481;SDS011;5797;51.662;6.748;2022-09-21T09:25:15;10.30;;;6.00;;
11481;SDS011;5797;51.662;6.748;2022-09-21T09:27:45;14.73;;;6.53;;
11481;SDS011;5797;51.662;6.748;2022-09-21T09:30:14;9.87;;;6.13;;
11481;SDS011;5797;51.662;6.748;2022-09-21T09:32:46;11.40;;;5.00;;
11481;SDS011;5797;51.662;6.748;2022-09-21T09:35:21;8.47;;;4.93;;
11481;SDS011;5797;51.662;6.748;2022-09-21T09:37:53;6.70;;;3.50;;
11481;SDS011;5797;51.662;6.748;2022-09-21T09:40:29;9.23;;;3.50;;
11481;SDS011;5797;51.662;6.748;2022-09-21T09:43:06;9.23;;;3.80;;
11481;SDS011;5797;51.662;6.748;2022-09-21T09:45:38;12.03;;;3.50;;
11481;SDS011;5797;51.662;6.748;2022-09-21T09:48:20;7.03;;;2.40;;
11481;SDS011;5797;51.662;6.748;2022-09-21T09:50:53;6.00;;;1.93;;
11481;SDS011;5797;51.662;6.748;2022-09-21T09:53:21;2.70;;;2.03;;
11481;SDS011;5797;51.662;6.748;2022-09-21T09:55:52;5.60;;;1.80;;
11481;SDS011;5797;51.662;6.748;2022-09-21T09:58:22;5.37;;;1.90;;
11481;SDS011;5797;51.662;6.748;2022-09-21T10:01:02;3.63;;;1.50;;
11481;SDS011;5797;51.662;6.748;2022-09-21T10:03:29;7.43;;;1.50;;
11481;SDS011;5797;51.662;6.748;2022-09-21T10:05:58;4.63;;;1.50;;
11481;SDS011;5797;51.662;6.748;2022-09-21T10:08:30;4.00;;;1.90;;
11481;SDS011;5797;51.662;6.748;2022-09-21T10:11:08;3.33;;;1.50;;
11481;SDS011;5797;51.662;6.748;2022-09-21T10:13:37;3.30;;;1.70;;
11481;SDS011;5797;51.662;6.748;2022-09-21T10:16:10;4.47;;;1.30;;
11481;SDS011;5797;51.662;6.748;2022-09-21T10:18:42;5.40;;;1.60;;
11481;SDS011;5797;51.662;6.748;2022-09-21T10:21:16;4.97;;;1.53;;
11481;SDS011;5797;51.662;6.748;2022-09-21T10:23:47;2.97;;;1.10;;
11481;SDS011;5797;51.662;6.748;2022-09-21T10:26:18;2.70;;;1.40;;
11481;SDS011;5797;51.662;6.748;2022-09-21T10:28:56;5.13;;;2.30;;
11481;SDS011;5797;51.662;6.748;2022-09-21T10:31:25;6.07;;;2.20;;
11481;SDS011;5797;51.662;6.748;2022-09-21T10:33:54;5.40;;;2.57;;
11481;SDS011;5797;51.662;6.748;2022-09-21T10:36:33;2.90;;;2.00;;
11481;SDS011;5797;51.662;6.748;2022-09-21T10:39:18;5.23;;;2.37;;
11481;SDS011;5797;51.662;6.748;2022-09-21T10:41:50;10.13;;;1.97;;
11481;SDS011;5797;51.662;6.748;2022-09-21T10:44:20;4.57;;;2.33;;
11481;SDS011;5797;51.662;6.748;2022-09-21T10:46:50;6.20;;;1.90;;
11481;SDS011;5797;51.662;6.748;2022-09-21T10:49:19;2.93;;;1.43;;
11481;SDS011;5797;51.662;6.748;2022-09-21T10:51:49;5.47;;;1.60;;
11481;SDS011;5797;51.662;6.748;2022-09-21T10:54:21;4.27;;;1.40;;
11481;SDS011;5797;51.662;6.748;2022-09-21T10:56:58;8.60;;;1.63;;
11481;SDS011;5797;51.662;6.748;2022-09-21T10:59:28;2.07;;;1.20;;
11481;SDS011;5797;51.662;6.748;2022-09-21T11:01:58;1.37;;;1.10;;
11481;SDS011;5797;51.662;6.748;2022-09-21T11:04:33;2.87;;;1.10;;
11481;SDS011;5797;51.662;6.748;2022-09-21T11:07:08;2.43;;;1.00;;
11481;SDS011;5797;51.662;6.748;2022-09-21T11:09:43;3.60;;;1.40;;
11481;SDS011;5797;51.662;6.748;2022-09-21T11:12:24;1.20;;;1.10;;
11481;SDS011;5797;51.662;6.748;2022-09-21T11:14:59;2.40;;;1.20;;
11481;SDS011;5797;51.662;6.748;2022-09-21T11:17:34;1.10;;;1.00;;
11481;SDS011;5797;51.662;6.748;2022-09-21T11:20:05;2.83;;;1.20;;
11481;SDS011;5797;51.662;6.748;2022-09-21T11:22:42;2.40;;;1.40;;
11481;SDS011;5797;51.662;6.748;2022-09-21T11:25:22;2.20;;;1.23;;
11481;SDS011;5797;51.662;6.748;2022-09-21T11:27:59;2.17;;;1.63;;
11481;SDS011;5797;51.662;6.748;2022-09-21T11:30:31;4.50;;;1.40;;
11481;SDS011;5797;51.662;6.748;2022-09-21T11:33:16;2.07;;;1.03;;
11481;SDS011;5797;51.662;6.748;2022-09-21T11:35:55;5.40;;;1.20;;
11481;SDS011;5797;51.662;6.748;2022-09-21T11:38:36;3.57;;;1.50;;
11481;SDS011;5797;51.662;6.748;2022-09-21T11:41:15;1.75;;;1.35;;
11481;SDS011;5797;51.662;6.748;2022-09-21T11:43:58;3.35;;;1.90;;
11481;SDS011;5797;51.662;6.748;2022-09-21T11:46:38;4.95;;;1.80;;
11481;SDS011;5797;51.662;6.748;2022-09-21T11:49:14;3.40;;;1.95;;
11481;SDS011;5797;51.662;6.748;2022-09-21T11:51:57;3.58;;;1.60;;
11481;SDS011;5797;51.662;6.748;2022-09-21T11:54:41;2.88;;;1.70;;
11481;SDS011;5797;51.662;6.748;2022-09-21T11:57:19;3.58;;;2.30;;
11481;SDS011;5797;51.662;6.748;2022-09-21T11:59:55;3.15;;;1.30;;
11481;SDS011;5797;51.662;6.748;2022-09-21T12:05:44;3.80;;;1.37;;
11481;SDS011;5797;51.662;6.748;2022-09-21T12:08:31;3.67;;;1.53;;
11481;SDS011;5797;51.662;6.748;2022-09-21T12:11:11;1.77;;;1.10;;
11481;SDS011;5797;51.662;6.748;2022-09-21T12:13:47;3.27;;;1.50;;
11481;SDS011;5797;51.662;6.748;2022-09-21T12:16:20;3.03;;;1.57;;
11481;SDS011;5797;51.662;6.748;2022-09-21T12:18:53;1.50;;;1.30;;
11481;SDS011;5797;51.662;6.748;2022-09-21T12:21:24;3.87;;;1.40;;
11481;SDS011;5797;51.662;6.748;2022-09-21T12:23:55;5.00;;;1.37;;
11481;SDS011;5797;51.662;6.748;2022-09-21T12:26:25;3.70;;;1.73;;
11481;SDS011;5797;51.662;6.748;2022-09-21T12:28:55;4.20;;;1.47;;
11481;SDS011;5797;51.662;6.748;2022-09-21T12:31:29;2.50;;;1.50;;
11481;SDS011;5797;51.662;6.748;2022-09-21T12:34:02;3.30;;;1.43;;
11481;SDS011;5797;51.662;6.748;2022-09-21T12:36:32;2.80;;;1.30;;
11481;SDS011;5797;51.662;6.748;2022-09-21T12:39:04;3.50;;;2.00;;
11481;SDS011;5797;51.662;6.748;2022-09-21T12:41:38;2.90;;;1.83;;
11481;SDS011;5797;51.662;6.748;2022-09-21T12:44:11;2.77;;;1.43;;
11481;SDS011;5797;51.662;6.748;2022-09-21T12:46:45;1.77;;;1.50;;
11481;SDS011;5797;51.662;6.748;2022-09-21T12:49:18;3.63;;;1.40;;
11481;SDS011;5797;51.662;6.748;2022-09-21T12:51:48;2.47;;;1.57;;
11481;SDS011;5797;51.662;6.748;2022-09-21T12:54:22;1.70;;;1.60;;
11481;SDS011;5797;51.662;6.748;2022-09-21T12:56:55;4.00;;;1.63;;
11481;SDS011;5797;51.662;6.748;2022-09-21T12:59:44;2.73;;;1.63;;
11481;SDS011;5797;51.662;6.748;2022-09-21T13:02:19;2.00;;;1.43;;
11481;SDS011;5797;51.662;6.748;2022-09-21T13:04:54;2.53;;;1.60;;
11481;SDS011;5797;51.662;6.748;2022-09-21T13:13:22;3.20;;;1.60;;
11481;SDS011;5797;51.662;6.748;2022-09-21T13:15:54;3.27;;;1.70;;
11481;SDS011;5797;51.662;6.748;2022-09-21T13:18:26;3.00;;;1.70;;
11481;SDS011;5797;51.662;6.748;2022-09-21T13:21:13;4.30;;;1.80;;
11481;SDS011;5797;51.662;6.748;2022-09-21T13:23:43;3.63;;;1.90;;
11481;SDS011;5797;51.662;6.748;2022-09-21T13:26:26;4.10;;;1.90;;
11481;SDS011;5797;51.662;6.748;2022-09-21T13:31:53;6.07;;;1.70;;
11481;SDS011;5797;51.662;6.748;2022-09-21T13:34:26;2.67;;;1.50;;
11481;SDS011;5797;51.662;6.748;2022-09-21T13:43:14;5.10;;;1.50;;
11481;SDS011;5797;51.662;6.748;2022-09-21T13:45:50;5.22;;;1.70;;
11481;SDS011;5797;51.662;6.748;2022-09-21T13:48:23;2.53;;;1.67;;
11481;SDS011;5797;51.662;6.748;2022-09-21T13:50:56;2.77;;;1.50;;
11481;SDS011;5797;51.662;6.748;2022-09-21T13:53:29;4.10;;;1.90;;
11481;SDS011;5797;51.662;6.748;2022-09-21T13:56:04;1.88;;;1.40;;
11481;SDS011;5797;51.662;6.748;2022-09-21T13:58:38;2.55;;;1.55;;
11481;SDS011;5797;51.662;6.748;2022-09-21T14:01:11;2.55;;;1.60;;
11481;SDS011;5797;51.662;6.748;2022-09-21T14:04:01;4.75;;;2.03;;
11481;SDS011;5797;51.662;6.748;2022-09-21T14:06:33;1.60;;;1.45;;
11481;SDS011;5797;51.662;6.748;2022-09-21T14:09:03;1.98;;;1.75;;
11481;SDS011;5797;51.662;6.748;2022-09-21T14:11:32;1.90;;;1.63;;
11481;SDS011;5797;51.662;6.748;2022-09-21T14:14:04;3.13;;;1.77;;
11481;SDS011;5797;51.662;6.748;2022-09-21T14:22:42;2.85;;;1.70;;
11481;SDS011;5797;51.662;6.748;2022-09-21T14:25:24;3.67;;;1.60;;
11481;SDS011;5797;51.662;6.748;2022-09-21T14:27:58;3.80;;;1.77;;
11481;SDS011;5797;51.662;6.748;2022-09-21T14:30:30;2.78;;;1.42;;
11481;SDS011;5797;51.662;6.748;2022-09-21T14:33:03;3.27;;;1.70;;
11481;SDS011;5797;51.662;6.748;2022-09-21T14:35:46;2.70;;;1.70;;
11481;SDS011;5797;51.662;6.748;2022-09-21T14:38:18;3.40;;;1.30;;
11481;SDS011;5797;51.662;6.748;2022-09-21T14:40:47;6.53;;;1.77;;
11481;SDS011;5797;51.662;6.748;2022-09-21T14:43:19;3.60;;;2.17;;
11481;SDS011;5797;51.662;6.748;2022-09-21T14:45:56;3.00;;;1.60;;
11481;SDS011;5797;51.662;6.748;2022-09-21T14:48:34;5.10;;;1.80;;
11481;SDS011;5797;51.662;6.748;2022-09-21T14:51:07;2.63;;;1.47;;
11481;SDS011;5797;51.662;6.748;2022-09-21T14:53:50;4.00;;;1.53;;
11481;SDS011;5797;51.662;6.748;2022-09-21T14:56:34;4.17;;;1.60;;
11481;SDS011;5797;51.662;6.748;2022-09-21T14:59:19;2.07;;;1.60;;
11481;SDS011;5797;51.662;6.748;2022-09-21T15:01:58;4.80;;;1.50;;
11481;SDS011;5797;51.662;6.748;2022-09-21T15:04:29;1.40;;;1.30;;
11481;SDS011;5797;51.662;6.748;2022-09-21T15:07:05;1.63;;;1.50;;
11481;SDS011;5797;51.662;6.748;2022-09-21T15:13:08;4.57;;;1.80;;
11481;SDS011;5797;51.662;6.748;2022-09-21T15:15:47;5.03;;;1.60;;
11481;SDS011;5797;51.662;6.748;2022-09-21T15:18:24;4.30;;;1.90;;
11481;SDS011;5797;51.662;6.748;2022-09-21T15:20:55;2.87;;;1.60;;
11481;SDS011;5797;51.662;6.748;2022-09-21T15:23:27;4.23;;;1.50;;
11481;SDS011;5797;51.662;6.748;2022-09-21T15:25:59;3.30;;;1.47;;
11481;SDS011;5797;51.662;6.748;2022-09-21T15:28:31;4.47;;;1.67;;
11481;SDS011;5797;51.662;6.748;2022-09-21T15:31:21;3.00;;;1.50;;
11481;SDS011;5797;51.662;6.748;2022-09-21T15:33:50;2.97;;;1.50;;
11481;SDS011;5797;51.662;6.748;2022-09-21T15:36:19;2.80;;;1.60;;
11481;SDS011;5797;51.662;6.748;2022-09-21T15:38:48;2.33;;;1.60;;
11481;SDS011;5797;51.662;6.748;2022-09-21T15:41:36;3.73;;;1.60;;
11481;SDS011;5797;51.662;6.748;2022-09-21T15:44:12;2.43;;;1.80;;
11481;SDS011;5797;51.662;6.748;2022-09-21T15:46:42;4.80;;;1.80;;
11481;SDS011;5797;51.662;6.748;2022-09-21T15:49:12;2.10;;;1.40;;
11481;SDS011;5797;51.662;6.748;2022-09-21T15:51:45;2.30;;;1.60;;
11481;SDS011;5797;51.662;6.748;2022-09-21T15:54:16;3.17;;;1.70;;
11481;SDS011;5797;51.662;6.748;2022-09-21T15:56:53;3.70;;;1.80;;
11481;SDS011;5797;51.662;6.748;2022-09-21T15:59:21;3.10;;;1.77;;